Puffinus — HBY4826 — position and weather

sailwx.info

Track history (hours):
 
Tides and Currents Weather Stations Pressure Air Temp Water Temp Dewpoint Dewpoint Depression Visibility Wind Speed Wind Dir Waves Ship Positions

Puffinus

Last reported at 2017-Sep-27 10:20 UTC. Time now 2017-Oct-17 22:55 UTC.
Position N 37°06' W 008°40'.
Warning: this ship's position is 20 days out of date.

Type: Sailing vessel. MMSI: 269107220.

Date/timePositionNaut miles runAvg speedWind from/ knotsBaromVisibWave heightAir tempDewpointWater temp
2017-Sep-27 10:20N 37°06' W 008°40'1 3.2
2017-Sep-27 09:59N 37°05' W 008°40'2 4.3
2017-Sep-27 09:30N 37°03' W 008°41'2 4.1
2017-Sep-27 08:59N 37°02' W 008°43'3 4.6
2017-Sep-27 08:22N 37°01' W 008°46'2 4.4
2017-Sep-27 07:57N 37°01' W 008°48'3 4.4
2017-Sep-27 07:18N 37°00' W 008°52'23 4.3
2017-Sep-27 01:51N 37°22' W 009°02'2 5.8
2017-Sep-27 01:27N 37°24' W 009°02'3 5.7
2017-Sep-27 00:59N 37°27' W 009°02'3 5.6
2017-Sep-27 00:30N 37°30' W 009°01'3 5.4
2017-Sep-27 00:00N 37°32' W 009°00'3 5.2
2017-Sep-26 23:29N 37°35' W 008°60'3 5.5
2017-Sep-26 23:00N 37°37' W 008°59'3 5.8
2017-Sep-26 22:30N 37°40' W 008°58'3 5.7
2017-Sep-26 22:00N 37°43' W 008°58'3 5.9
2017-Sep-26 21:30N 37°46' W 008°57'3 6.1
2017-Sep-26 21:00N 37°49' W 008°56'3 6.5
2017-Sep-26 20:30N 37°52' W 008°55'  
2017-Sep-21 15:02N 37°57' W 008°52'0 0.0
2017-Sep-21 14:59N 37°57' W 008°52'0 0.0
2017-Sep-21 14:29N 37°57' W 008°52'0 0.0
2017-Sep-21 13:59N 37°57' W 008°52'0 0.0
2017-Sep-21 13:30N 37°57' W 008°52'2 4.1
2017-Sep-21 13:00N 37°57' W 008°55'4 7.1
2017-Sep-21 12:30N 37°60' W 008°57'3 6.6
2017-Sep-21 12:00N 38°03' W 008°59'3 6.4
2017-Sep-21 11:30N 38°06' W 009°01'3 6.4
2017-Sep-21 11:00N 38°08' W 009°03'3 6.5
2017-Sep-21 10:30N 38°11' W 009°06'3 6.8
2017-Sep-21 10:00N 38°14' W 009°08'4 6.9
2017-Sep-21 09:30N 38°17' W 009°10'3 6.7
2017-Sep-21 09:00N 38°19' W 009°13'3 6.4
2017-Sep-21 08:29N 38°22' W 009°16'3 5.9
2017-Sep-21 07:59N 38°25' W 009°17'3 5.9
2017-Sep-21 07:29N 38°27' W 009°19'3 6.0
2017-Sep-21 06:56N 38°30' W 009°20'3 6.3
2017-Sep-21 06:30N 38°33' W 009°21'3 6.1
2017-Sep-21 06:00N 38°36' W 009°23'3 6.1
2017-Sep-21 05:30N 38°39' W 009°24'2 4.6
2017-Sep-21 04:59N 38°41' W 009°24'  
2017-Sep-18 12:20N 38°42' W 009°25'0 0.0
2017-Sep-18 11:59N 38°42' W 009°25'2 3.1
2017-Sep-18 11:30N 38°40' W 009°26'3 5.1
2017-Sep-18 11:00N 38°40' W 009°29'3 6.6
2017-Sep-18 10:30N 38°44' W 009°31'3 6.5
2017-Sep-18 10:00N 38°47' W 009°32'3 6.0
2017-Sep-18 09:30N 38°50' W 009°33'3 5.7
2017-Sep-18 09:00N 38°52' W 009°33'3 5.7
2017-Sep-18 08:30N 38°55' W 009°33'3 6.1
2017-Sep-18 08:00N 38°58' W 009°32'3 6.4
2017-Sep-18 07:30N 39°01' W 009°32'3 6.0
2017-Sep-18 07:00N 39°04' W 009°31'3 6.1
2017-Sep-18 06:30N 39°07' W 009°30'3 6.2
2017-Sep-18 06:00N 39°10' W 009°29'3 6.0
2017-Sep-18 05:30N 39°13' W 009°29'3 5.7
2017-Sep-18 05:00N 39°16' W 009°28'  
Track history (hours):
 
Tides and Currents Weather Stations Pressure Air Temp Water Temp Dewpoint Dewpoint Depression Visibility Wind Speed Wind Dir Waves Ship Positions

Puffinus

Last reported at 2017-Sep-27 10:20 UTC. Time now 2017-Oct-17 22:55 UTC.
Position N 37°06' W 008°40'.
Warning: this ship's position is 20 days out of date.

Type: Sailing vessel. MMSI: 269107220.

Date/timePositionNaut miles runAvg speedWind from/ knotsBaromVisibWave heightAir tempDewpointWater temp
2017-Sep-27 10:20N 37°06' W 008°40'1 3.2
2017-Sep-27 09:59N 37°05' W 008°40'2 4.3
2017-Sep-27 09:30N 37°03' W 008°41'2 4.1
2017-Sep-27 08:59N 37°02' W 008°43'3 4.6
2017-Sep-27 08:22N 37°01' W 008°46'2 4.4
2017-Sep-27 07:57N 37°01' W 008°48'3 4.4
2017-Sep-27 07:18N 37°00' W 008°52'23 4.3
2017-Sep-27 01:51N 37°22' W 009°02'2 5.8
2017-Sep-27 01:27N 37°24' W 009°02'3 5.7
2017-Sep-27 00:59N 37°27' W 009°02'3 5.6
2017-Sep-27 00:30N 37°30' W 009°01'3 5.4
2017-Sep-27 00:00N 37°32' W 009°00'3 5.2
2017-Sep-26 23:29N 37°35' W 008°60'3 5.5
2017-Sep-26 23:00N 37°37' W 008°59'3 5.8
2017-Sep-26 22:30N 37°40' W 008°58'3 5.7
2017-Sep-26 22:00N 37°43' W 008°58'3 5.9
2017-Sep-26 21:30N 37°46' W 008°57'3 6.1
2017-Sep-26 21:00N 37°49' W 008°56'3 6.5
2017-Sep-26 20:30N 37°52' W 008°55'  
2017-Sep-21 15:02N 37°57' W 008°52'0 0.0
2017-Sep-21 14:59N 37°57' W 008°52'0 0.0
2017-Sep-21 14:29N 37°57' W 008°52'0 0.0
2017-Sep-21 13:59N 37°57' W 008°52'0 0.0
2017-Sep-21 13:30N 37°57' W 008°52'2 4.1
2017-Sep-21 13:00N 37°57' W 008°55'4 7.1
2017-Sep-21 12:30N 37°60' W 008°57'3 6.6
2017-Sep-21 12:00N 38°03' W 008°59'3 6.4
2017-Sep-21 11:30N 38°06' W 009°01'3 6.4
2017-Sep-21 11:00N 38°08' W 009°03'3 6.5
2017-Sep-21 10:30N 38°11' W 009°06'3 6.8
2017-Sep-21 10:00N 38°14' W 009°08'4 6.9
2017-Sep-21 09:30N 38°17' W 009°10'3 6.7
2017-Sep-21 09:00N 38°19' W 009°13'3 6.4
2017-Sep-21 08:29N 38°22' W 009°16'3 5.9
2017-Sep-21 07:59N 38°25' W 009°17'3 5.9
2017-Sep-21 07:29N 38°27' W 009°19'3 6.0
2017-Sep-21 06:56N 38°30' W 009°20'3 6.3
2017-Sep-21 06:30N 38°33' W 009°21'3 6.1
2017-Sep-21 06:00N 38°36' W 009°23'3 6.1
2017-Sep-21 05:30N 38°39' W 009°24'2 4.6
2017-Sep-21 04:59N 38°41' W 009°24'  
2017-Sep-18 12:20N 38°42' W 009°25'0 0.0
2017-Sep-18 11:59N 38°42' W 009°25'2 3.1
2017-Sep-18 11:30N 38°40' W 009°26'3 5.1
2017-Sep-18 11:00N 38°40' W 009°29'3 6.6
2017-Sep-18 10:30N 38°44' W 009°31'3 6.5
2017-Sep-18 10:00N 38°47' W 009°32'3 6.0
2017-Sep-18 09:30N 38°50' W 009°33'3 5.7
2017-Sep-18 09:00N 38°52' W 009°33'3 5.7
2017-Sep-18 08:30N 38°55' W 009°33'3 6.1
2017-Sep-18 08:00N 38°58' W 009°32'3 6.4
2017-Sep-18 07:30N 39°01' W 009°32'3 6.0
2017-Sep-18 07:00N 39°04' W 009°31'3 6.1
2017-Sep-18 06:30N 39°07' W 009°30'3 6.2
2017-Sep-18 06:00N 39°10' W 009°29'3 6.0
2017-Sep-18 05:30N 39°13' W 009°29'3 5.7
2017-Sep-18 05:00N 39°16' W 009°28'  

Dump ship's entire track history